createdAt,value
2023-03-11T00:00:29.203Z,0.00
2023-03-11T00:01:29.172Z,0.00
2023-03-11T00:02:29.194Z,0.00
2023-03-11T00:03:29.199Z,0.00
2023-03-11T00:04:29.126Z,0.00
2023-03-11T00:05:29.207Z,0.00
2023-03-11T00:06:29.104Z,0.00
2023-03-11T00:07:29.169Z,0.00
2023-03-11T00:08:29.110Z,0.00
2023-03-11T00:09:29.075Z,0.00
2023-03-11T00:10:30.214Z,0.00
2023-03-11T00:11:29.072Z,0.00
2023-03-11T00:12:29.044Z,0.00
2023-03-11T00:13:29.022Z,0.00
2023-03-11T00:14:29.048Z,0.00
2023-03-11T00:15:29.029Z,0.00
2023-03-11T00:16:29.089Z,0.00
2023-03-11T00:17:28.998Z,0.00
2023-03-11T00:18:29.005Z,0.00
2023-03-11T00:19:29.212Z,0.00
2023-03-11T00:20:29.044Z,0.00
2023-03-11T00:21:28.944Z,0.00
2023-03-11T00:22:28.975Z,0.00
2023-03-11T00:23:28.939Z,0.00
2023-03-11T00:24:28.903Z,0.00
2023-03-11T00:25:28.911Z,0.00
2023-03-11T00:26:28.960Z,0.00
2023-03-11T00:27:28.893Z,0.00
2023-03-11T00:28:28.869Z,0.00
2023-03-11T00:29:28.860Z,0.00
2023-03-11T00:30:28.918Z,0.00
2023-03-11T00:31:28.827Z,0.00
2023-03-11T00:32:28.879Z,0.00
2023-03-11T00:33:28.822Z,0.00
2023-03-11T00:34:28.819Z,0.00
2023-03-11T00:35:28.823Z,0.00
2023-03-11T00:36:28.800Z,0.00
2023-03-11T00:37:28.767Z,0.00
2023-03-11T00:38:28.814Z,0.00
2023-03-11T00:39:28.750Z,0.00
2023-03-11T00:40:28.756Z,0.00
2023-03-11T00:41:28.722Z,0.00
2023-03-11T00:42:28.759Z,0.00
2023-03-11T00:43:28.728Z,0.00
2023-03-11T00:44:28.739Z,0.00
2023-03-11T00:45:28.676Z,0.00
2023-03-11T00:46:28.722Z,0.00
2023-03-11T00:47:28.650Z,0.00
2023-03-11T00:48:28.673Z,0.00
2023-03-11T00:49:28.620Z,0.00
2023-03-11T00:50:28.666Z,0.00
2023-03-11T00:51:28.604Z,0.00
2023-03-11T00:52:28.608Z,0.00
2023-03-11T00:53:28.606Z,0.00
2023-03-11T00:54:28.599Z,0.00
2023-03-11T00:55:28.604Z,0.00
2023-03-11T00:56:28.581Z,0.00
2023-03-11T00:57:28.531Z,0.00
2023-03-11T00:58:28.538Z,0.00
2023-03-11T00:59:28.509Z,0.00
2023-03-11T01:00:28.556Z,0.00
2023-03-11T01:01:28.545Z,0.00
2023-03-11T01:02:28.508Z,0.00
2023-03-11T01:03:28.478Z,0.00
2023-03-11T01:04:28.518Z,0.00
2023-03-11T01:05:28.472Z,0.00
2023-03-11T01:06:39.166Z,0.00
2023-03-11T01:07:29.449Z,0.00
2023-03-11T01:08:28.433Z,0.00
2023-03-11T01:09:28.410Z,0.00
2023-03-11T01:10:28.414Z,0.00
2023-03-11T01:11:28.418Z,0.00
2023-03-11T01:12:28.391Z,0.00
2023-03-11T01:13:28.378Z,0.00
2023-03-11T01:14:28.362Z,0.00
2023-03-11T01:15:28.350Z,0.00
2023-03-11T01:16:28.327Z,0.00
2023-03-11T01:17:28.325Z,0.00
2023-03-11T01:18:28.318Z,0.00
2023-03-11T01:19:28.329Z,0.00
2023-03-11T01:20:28.298Z,0.00
2023-03-11T01:21:28.280Z,0.00
2023-03-11T01:22:28.258Z,0.00
2023-03-11T01:23:28.261Z,0.00
2023-03-11T01:24:28.247Z,0.00
2023-03-11T01:25:28.257Z,0.00
2023-03-11T01:26:28.215Z,0.00
2023-03-11T01:27:28.239Z,0.00
2023-03-11T01:28:28.188Z,0.00
2023-03-11T01:29:28.217Z,0.00
2023-03-11T01:30:28.175Z,0.00
2023-03-11T01:31:28.253Z,0.00
2023-03-11T01:32:28.319Z,0.00
2023-03-11T01:33:28.172Z,0.00
2023-03-11T01:34:28.123Z,0.00
2023-03-11T01:35:28.225Z,0.00
2023-03-11T01:36:28.139Z,0.00
2023-03-11T01:37:28.087Z,0.00
2023-03-11T01:38:28.084Z,0.00
2023-03-11T01:39:28.086Z,0.00
2023-03-11T01:40:28.072Z,0.00
2023-03-11T01:41:28.072Z,0.00
2023-03-11T01:42:28.173Z,0.00
2023-03-11T01:43:28.042Z,0.00
2023-03-11T01:44:28.028Z,0.00
2023-03-11T01:45:28.005Z,0.00
2023-03-11T01:46:28.084Z,0.00
2023-03-11T01:47:27.985Z,0.00
2023-03-11T01:48:28.019Z,0.00
2023-03-11T01:49:27.985Z,0.00
2023-03-11T01:50:27.954Z,0.00
2023-03-11T01:51:27.941Z,0.00
2023-03-11T01:52:27.934Z,0.00
2023-03-11T01:53:27.928Z,0.00
2023-03-11T01:54:27.941Z,0.00
2023-03-11T01:55:27.920Z,0.00
2023-03-11T01:56:27.917Z,0.00
2023-03-11T01:57:27.872Z,0.00
2023-03-11T01:58:27.892Z,0.00
2023-03-11T01:59:27.850Z,0.00
2023-03-11T02:00:27.921Z,0.00
2023-03-11T02:01:27.887Z,0.00
2023-03-11T02:02:27.884Z,0.00
2023-03-11T02:03:27.816Z,0.00
2023-03-11T02:04:27.790Z,0.00
2023-03-11T02:05:27.787Z,0.00
2023-03-11T02:06:27.788Z,0.00
2023-03-11T02:07:27.778Z,0.00
2023-03-11T02:08:27.738Z,0.00
2023-03-11T02:09:27.733Z,0.00
2023-03-11T02:10:27.717Z,0.00
2023-03-11T02:11:27.759Z,0.00
2023-03-11T02:12:27.745Z,0.00
2023-03-11T02:13:27.720Z,0.00
2023-03-11T02:14:27.717Z,0.00
2023-03-11T02:15:27.689Z,0.00
2023-03-11T02:16:27.721Z,0.00
2023-03-11T02:17:27.684Z,0.00
2023-03-11T02:18:27.703Z,0.00
2023-03-11T02:19:27.658Z,0.00
2023-03-11T02:20:27.627Z,0.00
2023-03-11T02:21:27.630Z,0.00
2023-03-11T02:22:27.602Z,0.00
2023-03-11T02:23:27.614Z,0.00
2023-03-11T02:24:27.594Z,0.00
2023-03-11T02:25:27.581Z,0.00
2023-03-11T02:26:27.579Z,0.00
2023-03-11T02:27:27.555Z,0.00
2023-03-11T02:28:27.524Z,0.00
2023-03-11T02:29:27.532Z,0.00
2023-03-11T02:30:27.552Z,0.00
2023-03-11T02:31:27.541Z,0.00
2023-03-11T02:32:27.564Z,0.00
2023-03-11T02:33:27.503Z,0.00
2023-03-11T02:34:27.484Z,0.00
2023-03-11T02:35:27.463Z,0.00
2023-03-11T02:36:27.496Z,0.00
2023-03-11T02:37:27.450Z,0.00
2023-03-11T02:38:27.424Z,0.00
2023-03-11T02:39:27.415Z,0.00
2023-03-11T02:40:27.446Z,0.00
2023-03-11T02:41:27.384Z,0.00
2023-03-11T02:42:27.395Z,0.00
2023-03-11T02:43:27.369Z,0.00
2023-03-11T02:44:27.372Z,0.00
2023-03-11T02:45:27.347Z,0.00
2023-03-11T02:46:27.360Z,0.00
2023-03-11T02:47:27.349Z,0.00
2023-03-11T02:48:27.312Z,0.00
2023-03-11T02:49:27.300Z,0.00
2023-03-11T02:50:27.295Z,0.00
2023-03-11T02:51:27.289Z,0.00
2023-03-11T02:52:27.277Z,0.00
2023-03-11T02:53:27.287Z,0.00
2023-03-11T02:54:27.249Z,0.00
2023-03-11T02:55:27.226Z,0.00
2023-03-11T02:56:27.240Z,0.00
2023-03-11T02:57:27.214Z,0.00
2023-03-11T02:58:27.205Z,0.00
2023-03-11T02:59:27.206Z,0.00
2023-03-11T03:00:27.175Z,0.00
2023-03-11T03:01:27.163Z,0.00
2023-03-11T03:02:27.153Z,0.00
2023-03-11T03:03:27.153Z,0.00
2023-03-11T03:04:27.149Z,0.00
2023-03-11T03:05:27.146Z,0.00
2023-03-11T03:06:27.107Z,0.00
2023-03-11T03:07:34.145Z,0.00
2023-03-11T03:08:27.081Z,0.00
2023-03-11T03:09:27.084Z,0.00
2023-03-11T03:10:27.052Z,0.00
2023-03-11T03:11:27.080Z,0.00
2023-03-11T03:12:27.043Z,0.00
2023-03-11T03:13:27.024Z,0.00
2023-03-11T03:14:27.026Z,0.00
2023-03-11T03:15:27.011Z,0.00
2023-03-11T03:16:27.030Z,0.00
2023-03-11T03:17:27.014Z,0.00
2023-03-11T03:18:26.966Z,0.00
2023-03-11T03:19:26.966Z,0.00
2023-03-11T03:20:26.944Z,0.00
2023-03-11T03:21:26.935Z,0.00
2023-03-11T03:22:26.943Z,0.00
2023-03-11T03:23:26.943Z,0.00
2023-03-11T03:24:26.983Z,0.00
2023-03-11T03:25:26.925Z,0.00
2023-03-11T03:26:26.878Z,0.00
2023-03-11T03:27:26.893Z,0.00
2023-03-11T03:28:26.870Z,0.00
2023-03-11T03:29:26.840Z,0.00
2023-03-11T03:30:26.851Z,0.00
2023-03-11T03:31:26.874Z,0.00
2023-03-11T03:32:26.870Z,0.00
2023-03-11T03:33:26.838Z,0.00
2023-03-11T03:34:26.789Z,0.00
2023-03-11T03:35:26.779Z,0.00
2023-03-11T03:36:26.771Z,0.00
2023-03-11T03:37:26.764Z,0.00
2023-03-11T03:38:26.754Z,0.00
2023-03-11T03:39:28.260Z,0.00
2023-03-11T03:40:26.716Z,0.00
2023-03-11T03:41:26.731Z,0.00
2023-03-11T03:42:26.699Z,0.00
2023-03-11T03:43:26.699Z,0.00
2023-03-11T03:44:26.684Z,0.00
2023-03-11T03:45:26.679Z,0.00
2023-03-11T03:46:26.663Z,0.00
2023-03-11T03:47:26.649Z,0.00
2023-03-11T03:48:26.647Z,0.00
2023-03-11T03:49:26.620Z,0.00
2023-03-11T03:50:26.634Z,0.00
2023-03-11T03:51:26.645Z,0.00
2023-03-11T03:52:26.599Z,0.00
2023-03-11T03:53:26.588Z,0.00
2023-03-11T03:54:26.574Z,0.00
2023-03-11T03:55:26.562Z,0.00
2023-03-11T03:56:26.574Z,0.00
2023-03-11T03:57:26.554Z,0.00
2023-03-11T03:58:26.522Z,0.00
2023-03-11T03:59:26.523Z,0.00
2023-03-11T04:00:26.558Z,0.00
2023-03-11T04:01:26.526Z,0.00
2023-03-11T04:02:26.541Z,0.00
2023-03-11T04:03:26.674Z,0.00
2023-03-11T04:04:26.452Z,0.00
2023-03-11T04:05:26.453Z,0.00
2023-03-11T04:06:26.445Z,0.00
2023-03-11T04:07:26.463Z,0.00
2023-03-11T04:08:26.422Z,0.00
2023-03-11T04:09:26.422Z,0.00
2023-03-11T04:10:26.406Z,0.00
2023-03-11T04:11:26.392Z,0.00
2023-03-11T04:12:26.368Z,0.00
2023-03-11T04:13:26.409Z,0.00
2023-03-11T04:14:26.345Z,0.00
2023-03-11T04:15:26.341Z,0.00
2023-03-11T04:16:26.341Z,0.00
2023-03-11T04:17:26.323Z,0.00
2023-03-11T04:18:26.309Z,0.00
2023-03-11T04:19:26.323Z,0.00
2023-03-11T04:20:26.293Z,0.00
2023-03-11T04:21:26.282Z,0.00
2023-03-11T04:22:26.276Z,0.00
2023-03-11T04:23:26.256Z,0.00
2023-03-11T04:24:26.241Z,0.00
2023-03-11T04:25:26.252Z,0.00
2023-03-11T04:26:26.236Z,0.00
2023-03-11T04:27:26.213Z,0.00
2023-03-11T04:28:26.220Z,0.00
2023-03-11T04:29:26.229Z,0.00
2023-03-11T04:30:26.186Z,0.00
2023-03-11T04:31:26.156Z,0.00
2023-03-11T04:32:26.224Z,0.00
2023-03-11T04:33:26.148Z,0.00
2023-03-11T04:34:26.127Z,0.00
2023-03-11T04:35:26.146Z,0.00
2023-03-11T04:36:26.132Z,0.00
2023-03-11T04:37:26.095Z,0.00
2023-03-11T04:38:26.083Z,0.00
2023-03-11T04:39:26.074Z,0.00
2023-03-11T04:40:26.053Z,0.00
2023-03-11T04:41:26.137Z,0.00
2023-03-11T04:42:26.033Z,0.00
2023-03-11T04:43:26.023Z,0.00
2023-03-11T04:44:26.011Z,0.00
2023-03-11T04:45:26.002Z,0.00
2023-03-11T04:46:26.016Z,0.00
2023-03-11T04:47:25.998Z,0.00
2023-03-11T04:48:25.970Z,0.00
2023-03-11T04:49:25.952Z,0.00
2023-03-11T04:50:25.966Z,0.00
2023-03-11T04:51:25.930Z,0.00
2023-03-11T04:52:25.935Z,0.00
2023-03-11T04:53:26.004Z,0.00
2023-03-11T04:54:25.919Z,0.00
2023-03-11T04:55:25.911Z,0.00
2023-03-11T04:56:25.879Z,0.00
2023-03-11T04:57:25.921Z,0.00
2023-03-11T04:58:25.882Z,0.00
2023-03-11T04:59:25.851Z,0.00
2023-03-11T05:00:25.832Z,0.00
2023-03-11T05:01:25.858Z,0.00
2023-03-11T05:02:25.818Z,0.00
2023-03-11T05:03:25.837Z,0.00
2023-03-11T05:04:25.842Z,0.00
2023-03-11T05:05:25.778Z,0.00
2023-03-11T05:06:25.769Z,0.00
2023-03-11T05:07:25.803Z,0.00
2023-03-11T05:08:25.743Z,0.00
2023-03-11T05:09:25.743Z,0.00
2023-03-11T05:10:25.737Z,0.00
2023-03-11T05:11:25.719Z,0.00
2023-03-11T05:12:25.698Z,0.00
2023-03-11T05:13:25.698Z,0.00
2023-03-11T05:14:25.680Z,0.00
2023-03-11T05:15:25.713Z,0.00
2023-03-11T05:16:25.715Z,0.00
2023-03-11T05:17:25.647Z,0.00
2023-03-11T05:18:25.628Z,4.00
2023-03-11T05:19:25.629Z,4.00
2023-03-11T05:20:25.607Z,4.00
2023-03-11T05:21:25.622Z,0.00
2023-03-11T05:22:25.602Z,4.00
2023-03-11T05:23:25.588Z,4.00
2023-03-11T05:24:25.569Z,4.00
2023-03-11T05:25:25.570Z,4.00
2023-03-11T05:26:25.575Z,8.00
2023-03-11T05:27:25.548Z,4.00
2023-03-11T05:28:25.554Z,8.00
2023-03-11T05:29:25.531Z,8.00
2023-03-11T05:30:25.541Z,8.00
2023-03-11T05:31:25.515Z,8.00
2023-03-11T05:32:25.535Z,8.00
2023-03-11T05:33:25.471Z,12.00
2023-03-11T05:34:25.461Z,12.00
2023-03-11T05:35:25.481Z,16.00
2023-03-11T05:36:25.445Z,20.00
2023-03-11T05:37:25.436Z,24.00
2023-03-11T05:38:25.438Z,24.00
2023-03-11T05:39:25.403Z,32.00
2023-03-11T05:40:25.393Z,36.00
2023-03-11T05:41:25.384Z,36.00
2023-03-11T05:42:25.383Z,44.00
2023-03-11T05:43:25.361Z,48.00
2023-03-11T05:44:25.376Z,56.00
2023-03-11T05:45:25.348Z,64.00
2023-03-11T05:46:25.378Z,76.00
2023-03-11T05:47:25.318Z,80.00
2023-03-11T05:48:25.310Z,88.00
2023-03-11T05:49:25.318Z,100.00
2023-03-11T05:50:25.287Z,108.00
2023-03-11T05:51:25.272Z,112.00
2023-03-11T05:52:25.266Z,112.00
2023-03-11T05:53:25.249Z,112.00
2023-03-11T05:54:25.239Z,116.00
2023-03-11T05:55:25.239Z,128.00
2023-03-11T05:56:25.230Z,148.00
2023-03-11T05:57:25.209Z,156.00
2023-03-11T05:58:25.322Z,164.00
2023-03-11T05:59:25.216Z,184.00
2023-03-11T06:00:25.183Z,196.00
2023-03-11T06:01:25.224Z,208.00
2023-03-11T06:02:25.154Z,228.00
2023-03-11T06:03:25.136Z,252.00
2023-03-11T06:04:25.411Z,280.00
2023-03-11T06:05:25.179Z,312.00
2023-03-11T06:06:25.147Z,328.00
2023-03-11T06:07:25.105Z,344.00
2023-03-11T06:08:25.096Z,360.00
2023-03-11T06:09:25.064Z,396.00
2023-03-11T06:10:25.064Z,440.00
2023-03-11T06:11:25.053Z,468.00
2023-03-11T06:12:25.054Z,476.00
2023-03-11T06:13:25.054Z,480.00
2023-03-11T06:14:25.016Z,520.00
2023-03-11T06:15:25.005Z,580.00
2023-03-11T06:16:25.116Z,620.00
2023-03-11T06:17:25.025Z,636.00
2023-03-11T06:18:24.988Z,652.00
2023-03-11T06:19:24.972Z,652.00
2023-03-11T06:20:24.948Z,628.00
2023-03-11T06:21:24.930Z,644.00
2023-03-11T06:22:24.924Z,668.00
2023-03-11T06:23:24.911Z,744.00
2023-03-11T06:24:24.991Z,816.00
2023-03-11T06:25:24.890Z,892.00
2023-03-11T06:26:24.948Z,1000.00
2023-03-11T06:27:24.872Z,1148.00
2023-03-11T06:28:24.864Z,1352.00
2023-03-11T06:29:24.871Z,1480.00
2023-03-11T06:30:24.867Z,1468.00
2023-03-11T06:31:24.872Z,1408.00
2023-03-11T06:32:24.840Z,1360.00
2023-03-11T06:33:24.819Z,1340.00
2023-03-11T06:34:24.826Z,1336.00
2023-03-11T06:35:24.783Z,1312.00
2023-03-11T06:36:24.807Z,1272.00
2023-03-11T06:37:24.763Z,1304.00
2023-03-11T06:38:24.761Z,1432.00
2023-03-11T06:39:24.809Z,1592.00
2023-03-11T06:40:24.726Z,1720.00
2023-03-11T06:41:24.707Z,1788.00
2023-03-11T06:42:24.753Z,1824.00
2023-03-11T06:43:24.701Z,1936.00
2023-03-11T06:44:24.680Z,2028.00
2023-03-11T06:45:24.671Z,2128.00
2023-03-11T06:46:24.667Z,2336.00
2023-03-11T06:47:24.666Z,2604.00
2023-03-11T06:48:24.681Z,2796.00
2023-03-11T06:49:24.630Z,2884.00
2023-03-11T06:50:24.629Z,2876.00
2023-03-11T06:51:24.612Z,2936.00
2023-03-11T06:52:24.598Z,3120.00
2023-03-11T06:53:24.587Z,3360.00
2023-03-11T06:54:24.619Z,3436.00
2023-03-11T06:55:24.559Z,3372.00
2023-03-11T06:56:24.580Z,3424.00
2023-03-11T06:57:24.539Z,3680.00
2023-03-11T06:58:24.533Z,3924.00
2023-03-11T06:59:24.548Z,4212.00
2023-03-11T07:00:24.504Z,4468.00
2023-03-11T07:01:24.537Z,4580.00
2023-03-11T07:02:24.505Z,4548.00
2023-03-11T07:03:24.478Z,4392.00
2023-03-11T07:04:24.485Z,4296.00
2023-03-11T07:05:24.471Z,4288.00
2023-03-11T07:06:24.447Z,4344.00
2023-03-11T07:07:24.431Z,4552.00
2023-03-11T07:08:24.420Z,4796.00
2023-03-11T07:09:24.418Z,6044.00
2023-03-11T07:10:24.401Z,5084.00
2023-03-11T07:11:24.396Z,5880.00
2023-03-11T07:12:24.382Z,6328.00
2023-03-11T07:13:24.359Z,16928.00
2023-03-11T07:14:24.438Z,18240.00
2023-03-11T07:15:24.342Z,19104.00
2023-03-11T07:16:24.429Z,19424.00
2023-03-11T07:17:24.336Z,20416.00
2023-03-11T07:18:24.312Z,17824.00
2023-03-11T07:19:24.291Z,18112.00
2023-03-11T07:20:24.292Z,19136.00
2023-03-11T07:21:24.287Z,17920.00
2023-03-11T07:22:24.302Z,20320.00
2023-03-11T07:23:24.269Z,20736.00
2023-03-11T07:24:24.238Z,22432.00
2023-03-11T07:25:24.548Z,28416.00
2023-03-11T07:26:24.221Z,27424.00
2023-03-11T07:27:24.198Z,25984.00
2023-03-11T07:28:24.219Z,26528.00
2023-03-11T07:29:24.188Z,28096.00
2023-03-11T07:30:24.185Z,28448.00
2023-03-11T07:31:24.257Z,28672.00
2023-03-11T07:32:24.178Z,28512.00
2023-03-11T07:33:24.141Z,28832.00
2023-03-11T07:34:24.153Z,28768.00
2023-03-11T07:35:24.129Z,29824.00
2023-03-11T07:36:24.109Z,29472.00
2023-03-11T07:37:24.089Z,29824.00
2023-03-11T07:38:24.085Z,30752.00
2023-03-11T07:39:24.069Z,33024.00
2023-03-11T07:40:24.077Z,34816.00
2023-03-11T07:41:24.179Z,35104.00
2023-03-11T07:42:24.038Z,36736.00
2023-03-11T07:43:24.023Z,35936.00
2023-03-11T07:44:24.019Z,35136.00
2023-03-11T07:45:24.001Z,36256.00
2023-03-11T07:46:24.076Z,36128.00
2023-03-11T07:47:24.065Z,35488.00
2023-03-11T07:48:23.967Z,30208.00
2023-03-11T07:49:23.969Z,24480.00
2023-03-11T07:50:23.949Z,18368.00
2023-03-11T07:51:23.929Z,13944.00
2023-03-11T07:52:23.938Z,10100.00
2023-03-11T07:53:23.911Z,8724.00
2023-03-11T07:54:23.908Z,7708.00
2023-03-11T07:55:23.888Z,7468.00
2023-03-11T07:56:23.902Z,7508.00
2023-03-11T07:57:23.861Z,14960.00
2023-03-11T07:58:23.878Z,13788.00
2023-03-11T07:59:23.842Z,8436.00
2023-03-11T08:00:23.906Z,8864.00
2023-03-11T08:01:23.827Z,9044.00
2023-03-11T08:02:23.875Z,9584.00
2023-03-11T08:03:23.909Z,7724.00
2023-03-11T08:04:23.793Z,7156.00
2023-03-11T08:05:23.798Z,7160.00
2023-03-11T08:06:23.768Z,7448.00
2023-03-11T08:07:23.805Z,8448.00
2023-03-11T08:08:23.739Z,10208.00
2023-03-11T08:09:23.765Z,12364.00
2023-03-11T08:10:23.721Z,12280.00
2023-03-11T08:11:23.712Z,11224.00
2023-03-11T08:12:23.709Z,17920.00
2023-03-11T08:13:23.688Z,12264.00
2023-03-11T08:14:23.681Z,10744.00
2023-03-11T08:15:23.752Z,8644.00
2023-03-11T08:16:23.660Z,7956.00
2023-03-11T08:17:23.669Z,7764.00
2023-03-11T08:18:23.646Z,7724.00
2023-03-11T08:19:23.627Z,7852.00
2023-03-11T08:20:23.608Z,8356.00
2023-03-11T08:21:23.661Z,9112.00
2023-03-11T08:22:23.589Z,9672.00
2023-03-11T08:23:23.568Z,9992.00
2023-03-11T08:24:23.568Z,10384.00
2023-03-11T08:25:23.565Z,10876.00
2023-03-11T08:26:23.544Z,11268.00
2023-03-11T08:27:23.548Z,11428.00
2023-03-11T08:28:23.519Z,11480.00
2023-03-11T08:29:23.510Z,11716.00
2023-03-11T08:30:23.498Z,12172.00
2023-03-11T08:31:23.528Z,12764.00
2023-03-11T08:32:23.517Z,13080.00
2023-03-11T08:33:23.491Z,13444.00
2023-03-11T08:34:23.479Z,14032.00
2023-03-11T08:35:23.517Z,14828.00
2023-03-11T08:36:23.432Z,15732.00
2023-03-11T08:37:24.412Z,16832.00
2023-03-11T08:38:23.408Z,17376.00
2023-03-11T08:39:23.425Z,17344.00
2023-03-11T08:40:23.398Z,16252.00
2023-03-11T08:41:23.370Z,15340.00
2023-03-11T08:42:23.360Z,15668.00
2023-03-11T08:43:23.347Z,15844.00
2023-03-11T08:44:23.349Z,15544.00
2023-03-11T08:45:23.348Z,18080.00
2023-03-11T08:46:23.339Z,19232.00
2023-03-11T08:47:23.297Z,20256.00
2023-03-11T08:48:23.287Z,20672.00
2023-03-11T08:49:23.276Z,26912.00
2023-03-11T08:50:23.267Z,25728.00
2023-03-11T08:51:23.276Z,25216.00
2023-03-11T08:52:23.253Z,39104.00
2023-03-11T08:53:23.240Z,42432.00
2023-03-11T08:54:23.226Z,34400.00
2023-03-11T08:55:23.214Z,34848.00
2023-03-11T08:56:23.206Z,48768.00
2023-03-11T08:57:23.235Z,48256.00
2023-03-11T08:58:23.178Z,48992.00
2023-03-11T08:59:23.168Z,49600.00
2023-03-11T09:00:23.158Z,47808.00
2023-03-11T09:01:23.157Z,48992.00
2023-03-11T09:02:23.183Z,46432.00
2023-03-11T09:03:23.143Z,48800.00
2023-03-11T09:04:23.106Z,46464.00
2023-03-11T09:05:23.107Z,45056.00
2023-03-11T09:06:23.096Z,35904.00
2023-03-11T09:07:23.075Z,52256.00
2023-03-11T09:08:23.066Z,51456.00
2023-03-11T09:09:23.077Z,18272.00
2023-03-11T09:10:23.045Z,51168.00
2023-03-11T09:11:23.036Z,51232.00
2023-03-11T09:12:23.020Z,50208.00
2023-03-11T09:13:23.007Z,46816.00
2023-03-11T09:14:23.015Z,50432.00
2023-03-11T09:15:22.995Z,11988.00
2023-03-11T09:16:23.032Z,17696.00
2023-03-11T09:17:22.973Z,44544.00
2023-03-11T09:18:22.950Z,48800.00
2023-03-11T09:19:22.938Z,50432.00
2023-03-11T09:20:22.939Z,41824.00
2023-03-11T09:21:22.955Z,51584.00
2023-03-11T09:22:22.907Z,51168.00
2023-03-11T09:23:22.917Z,51712.00
2023-03-11T09:24:22.894Z,52160.00
2023-03-11T09:25:22.870Z,55200.00
2023-03-11T09:26:22.880Z,54880.00
2023-03-11T09:27:22.868Z,54592.00
2023-03-11T09:28:22.855Z,57920.00
2023-03-11T09:29:22.834Z,52832.00
2023-03-11T09:30:22.820Z,41952.00
2023-03-11T09:31:22.875Z,28160.00
2023-03-11T09:32:22.867Z,12344.00
2023-03-11T09:33:22.790Z,11560.00
2023-03-11T09:34:22.791Z,11208.00
2023-03-11T09:35:22.790Z,11524.00
2023-03-11T09:36:22.755Z,12372.00
2023-03-11T09:37:22.748Z,13472.00
2023-03-11T09:38:23.321Z,14856.00
2023-03-11T09:39:22.714Z,16064.00
2023-03-11T09:40:22.713Z,16704.00
2023-03-11T09:41:22.693Z,16264.00
2023-03-11T09:42:22.809Z,15332.00
2023-03-11T09:43:22.826Z,13632.00
2023-03-11T09:44:22.703Z,11932.00
2023-03-11T09:45:23.410Z,10952.00
2023-03-11T09:46:22.661Z,9672.00
2023-03-11T09:47:22.630Z,8636.00
2023-03-11T09:48:22.873Z,7860.00
2023-03-11T09:49:22.616Z,7176.00
2023-03-11T09:50:22.630Z,6676.00
2023-03-11T09:51:22.590Z,6128.00
2023-03-11T09:52:22.575Z,5776.00
2023-03-11T09:53:22.583Z,5656.00
2023-03-11T09:54:22.553Z,5656.00
2023-03-11T09:55:22.541Z,5656.00
2023-03-11T09:56:22.543Z,5556.00
2023-03-11T09:57:23.050Z,5352.00
2023-03-11T09:58:22.499Z,5304.00
2023-03-11T09:59:22.491Z,5420.00
2023-03-11T10:00:22.479Z,5656.00
2023-03-11T10:01:22.488Z,5900.00
2023-03-11T10:02:22.835Z,6308.00
2023-03-11T10:03:22.687Z,6892.00
2023-03-11T10:04:22.440Z,7392.00
2023-03-11T10:05:22.426Z,7860.00
2023-03-11T10:06:22.423Z,8196.00
2023-03-11T10:07:22.399Z,8420.00
2023-03-11T10:08:22.408Z,8644.00
2023-03-11T10:09:22.383Z,8924.00
2023-03-11T10:10:29.413Z,9304.00
2023-03-11T10:11:22.366Z,9700.00
2023-03-11T10:12:22.346Z,9904.00
2023-03-11T10:13:22.336Z,9920.00
2023-03-11T10:14:22.349Z,9860.00
2023-03-11T10:15:22.329Z,9956.00
2023-03-11T10:16:22.343Z,10332.00
2023-03-11T10:17:22.316Z,10828.00
2023-03-11T10:18:22.300Z,11388.00
2023-03-11T10:19:22.301Z,11848.00
2023-03-11T10:20:22.363Z,11780.00
2023-03-11T10:21:24.560Z,11248.00
2023-03-11T10:22:22.244Z,10820.00
2023-03-11T10:23:22.248Z,10820.00
2023-03-11T10:24:22.215Z,11204.00
2023-03-11T10:25:22.224Z,11608.00
2023-03-11T10:26:22.208Z,12736.00
2023-03-11T10:27:22.210Z,13472.00
2023-03-11T10:28:22.169Z,13916.00
2023-03-11T10:29:22.173Z,13732.00
2023-03-11T10:30:22.179Z,13192.00
2023-03-11T10:31:22.202Z,12852.00
2023-03-11T10:32:22.154Z,13032.00
2023-03-11T10:33:22.137Z,13500.00
2023-03-11T10:34:22.132Z,14012.00
2023-03-11T10:35:22.124Z,14396.00
2023-03-11T10:36:22.116Z,14580.00
2023-03-11T10:37:22.077Z,14552.00
2023-03-11T10:38:22.065Z,14416.00
2023-03-11T10:39:22.066Z,14248.00
2023-03-11T10:40:23.781Z,14096.00
2023-03-11T10:41:22.065Z,13904.00
2023-03-11T10:42:22.067Z,13860.00
2023-03-11T10:43:22.054Z,14140.00
2023-03-11T10:44:21.995Z,14468.00
2023-03-11T10:45:21.986Z,14684.00
2023-03-11T10:46:21.975Z,14676.00
2023-03-11T10:47:21.966Z,14340.00
2023-03-11T10:48:21.984Z,14204.00
2023-03-11T10:49:21.953Z,13116.00
2023-03-11T10:50:21.929Z,12280.00
2023-03-11T10:51:21.904Z,11400.00
2023-03-11T10:52:21.920Z,10972.00
2023-03-11T10:53:21.895Z,11024.00
2023-03-11T10:54:21.894Z,11460.00
2023-03-11T10:55:21.876Z,12236.00
2023-03-11T10:56:21.853Z,13076.00
2023-03-11T10:57:21.854Z,13720.00
2023-03-11T10:58:21.834Z,13896.00
2023-03-11T10:59:21.823Z,13832.00
2023-03-11T11:00:21.831Z,13636.00
2023-03-11T11:01:21.922Z,13136.00
2023-03-11T11:02:21.794Z,12924.00
2023-03-11T11:03:21.783Z,12560.00
2023-03-11T11:04:21.829Z,12316.00
2023-03-11T11:05:21.766Z,12076.00
2023-03-11T11:06:21.767Z,11964.00
2023-03-11T11:07:21.753Z,12332.00
2023-03-11T11:08:21.717Z,13096.00
2023-03-11T11:09:21.710Z,14020.00
2023-03-11T11:10:21.706Z,14704.00
2023-03-11T11:11:22.189Z,15256.00
2023-03-11T11:12:21.676Z,15564.00
2023-03-11T11:13:21.667Z,15464.00
2023-03-11T11:14:21.655Z,14576.00
2023-03-11T11:15:21.646Z,14400.00
2023-03-11T11:16:21.704Z,14272.00
2023-03-11T11:17:21.638Z,13864.00
2023-03-11T11:18:21.612Z,13268.00
2023-03-11T11:19:21.598Z,12452.00
2023-03-11T11:20:21.587Z,11812.00
2023-03-11T11:21:21.577Z,12344.00
2023-03-11T11:22:21.557Z,11656.00
2023-03-11T11:23:21.577Z,12544.00
2023-03-11T11:24:21.558Z,13760.00
2023-03-11T11:25:21.581Z,14424.00
2023-03-11T11:26:21.528Z,14276.00
2023-03-11T11:27:21.509Z,13956.00
2023-03-11T11:28:21.502Z,14364.00
2023-03-11T11:29:21.514Z,14324.00
2023-03-11T11:30:21.473Z,13988.00
2023-03-11T11:31:21.470Z,14680.00
2023-03-11T11:32:21.541Z,14672.00
2023-03-11T11:33:21.440Z,14792.00
2023-03-11T11:34:23.081Z,14956.00
2023-03-11T11:35:21.439Z,14772.00
2023-03-11T11:36:21.403Z,14480.00
2023-03-11T11:37:21.397Z,14220.00
2023-03-11T11:38:21.376Z,13932.00
2023-03-11T11:39:21.376Z,13472.00
2023-03-11T11:40:21.386Z,13256.00
2023-03-11T11:41:21.346Z,12944.00
2023-03-11T11:42:21.365Z,12712.00
2023-03-11T11:43:21.338Z,12488.00
2023-03-11T11:44:21.316Z,12484.00
2023-03-11T11:45:21.306Z,12660.00
2023-03-11T11:46:21.380Z,12676.00
2023-03-11T11:47:21.285Z,13276.00
2023-03-11T11:48:21.287Z,14000.00
2023-03-11T11:49:21.268Z,14204.00
2023-03-11T11:50:21.253Z,14128.00
2023-03-11T11:51:21.233Z,14116.00
2023-03-11T11:52:21.266Z,14488.00
2023-03-11T11:53:21.292Z,14696.00
2023-03-11T11:54:21.349Z,14620.00
2023-03-11T11:55:21.206Z,13228.00
2023-03-11T11:56:21.174Z,11744.00
2023-03-11T11:57:21.173Z,12212.00
2023-03-11T11:58:21.178Z,12256.00
2023-03-11T11:59:21.174Z,13020.00
2023-03-11T12:00:21.170Z,12964.00
2023-03-11T12:01:21.122Z,12200.00
2023-03-11T12:02:21.140Z,12052.00
2023-03-11T12:03:21.259Z,11384.00
2023-03-11T12:04:21.220Z,10972.00
2023-03-11T12:05:21.119Z,10660.00
2023-03-11T12:06:21.065Z,11008.00
2023-03-11T12:07:21.150Z,11232.00
2023-03-11T12:08:21.064Z,11692.00
2023-03-11T12:09:21.053Z,11976.00
2023-03-11T12:10:23.782Z,12804.00
2023-03-11T12:11:21.014Z,13516.00
2023-03-11T12:12:20.995Z,14216.00
2023-03-11T12:13:20.992Z,14648.00
2023-03-11T12:14:20.981Z,15048.00
2023-03-11T12:15:20.989Z,15596.00
2023-03-11T12:16:20.978Z,15788.00
2023-03-11T12:17:20.951Z,15324.00
2023-03-11T12:18:20.957Z,14844.00
2023-03-11T12:19:20.924Z,14844.00
2023-03-11T12:20:20.923Z,14540.00
2023-03-11T12:21:20.911Z,14276.00
2023-03-11T12:22:20.889Z,14960.00
2023-03-11T12:23:20.888Z,15628.00
2023-03-11T12:24:20.866Z,16240.00
2023-03-11T12:25:20.863Z,16376.00
2023-03-11T12:26:20.872Z,16576.00
2023-03-11T12:27:20.836Z,15736.00
2023-03-11T12:28:20.843Z,15292.00
2023-03-11T12:29:20.812Z,14896.00
2023-03-11T12:30:20.803Z,14360.00